Riverton, WY

7:02 PM MDT on September 15, 2014 (GMT -0600)
KWYRIVER2 | Change Station
CLOSE
Current Station
Personal Weather Station
Location: Riverton, WY
Elevation: 5405 ft
Nearby Weather Stations

Elev 5405 ft 43.08 °N, 108.52 °W | Updated 7 minutes ago

Clear
Clear
73.3 °F
Feels Like 77 °F
N
3.0
Wind Variable Wind from NNE

Today
High -- | Low -- °F
--% Chance of Precip.
Yesterday
High -- | Low -- °F
Precip. -- in
6:53 AM 7:23 PM
Waning Gibbous, 50% visible
Pressure 30.00 in
Visibility 10.0 miles
Clouds Clear
Heat Index 77 °F
Dew Point 46 °F
Humidity 38%
Rainfall 0.00 in
Snow Depth 2 in , 0 in , 2 in
UV 0.0 out of 12
Pollen 5.70 out of 12
Air Quality Not available.
Flu Activity Not available.
METAR KRIW 160053Z AUTO 05004KT 10SM CLR 23/04 A3011 RMK AO2 SLP157 T02280039

More Conditions Fewer Conditions

Pressure 30.00 in
Visibility 10.0 miles
Clouds Clear
Heat Index 77 °F
Dew Point 46 °F
Humidity 38%
Rainfall 0.00 in
Snow Depth 2 in , 0 in , 2 in
UV 0.0 out of 12
Pollen 5.70 out of 12
Air Quality Not available.
Flu Activity Not available.
METAR KRIW 160053Z AUTO 05004KT 10SM CLR 23/04 A3011 RMK AO2 SLP157 T02280039

More Conditions Fewer Conditions

10-Day Weather Forecast

Almanac

Astronomy

Sep. 15, 2014 Rise Set
Actual Time 6:53 AM MDT 7:23 PM MDT
Civil Twilight 6:25 AM MDT 7:52 PM MDT
Nautical Twilight 5:51 AM MDT 8:25 PM MDT
Astronomical Twilight 5:16 AM MDT 9:00 PM MDT
Moon No Moon Rise 2:05 PM MDT (9/15)
Length of Visible Light 13h 27m
Length of Day
12h 30m
Tomorrow will be 2m 54s shorter.
Waning Gibbous, 50% of the Moon is Illuminated
Today
Waning Gibbous
Sep 15
Last Quarter
Sep 24
New
Oct 1
First Quarter
Oct 8
Full

Today's Extremes

State Highs State Lows

Community

WunderPhotos

Upload Photos

1,753,630 photos uploaded!

WunderBlogs® & News

Nearby

Snow Depth

Station Depth Elevation
Willow Creek 2 in 8450 ft
Phillips Bench 0 in 8200 ft
Bald Mountain 0 in 9380 ft
Gunsight Pass 2 in 9820 ft
Cinnabar Park 0 in 9690 ft

Earthquake Activity

City Distance Mag. Time & Date
No recent earthquake activity has been reported nearby.
Minimum magnitude displayed is 2.5.

Coastal Water Temperatures

Place Temperature
No Stations Reporting

Nearby Weather Stations